createdAt,value
2018-06-09T00:01:13.454Z,5.60
2018-06-09T00:03:41.946Z,6.63
2018-06-09T00:06:10.319Z,7.00
2018-06-09T00:08:38.679Z,4.60
2018-06-09T00:11:07.125Z,5.23
2018-06-09T00:13:35.507Z,5.47
2018-06-09T00:16:03.858Z,3.73
2018-06-09T00:18:32.220Z,5.00
2018-06-09T00:21:00.678Z,5.00
2018-06-09T00:23:29.131Z,5.00
2018-06-09T00:25:57.557Z,4.73
2018-06-09T00:28:25.979Z,4.57
2018-06-09T00:30:54.359Z,4.77
2018-06-09T00:33:22.722Z,5.23
2018-06-09T00:35:51.143Z,5.93
2018-06-09T00:38:19.519Z,5.13
2018-06-09T00:40:47.896Z,4.77
2018-06-09T00:43:16.349Z,4.97
2018-06-09T00:45:44.747Z,5.20
2018-06-09T00:48:13.091Z,5.00
2018-06-09T00:50:41.496Z,4.70
2018-06-09T00:53:09.877Z,4.97
2018-06-09T00:55:38.267Z,4.90
2018-06-09T00:58:06.803Z,5.40
2018-06-09T01:00:35.261Z,6.17
2018-06-09T01:03:03.655Z,5.23
2018-06-09T01:05:32.080Z,5.07
2018-06-09T01:08:00.469Z,5.47
2018-06-09T01:10:28.835Z,4.87
2018-06-09T01:12:57.197Z,5.17
2018-06-09T01:15:25.601Z,5.17
2018-06-09T01:17:53.956Z,5.20
2018-06-09T01:20:22.939Z,5.20
2018-06-09T01:22:51.304Z,5.83
2018-06-09T01:25:19.987Z,5.60
2018-06-09T01:27:48.414Z,6.07
2018-06-09T01:30:16.759Z,5.57
2018-06-09T01:32:45.093Z,6.03
2018-06-09T01:35:13.136Z,5.50
2018-06-09T01:37:41.559Z,5.67
2018-06-09T01:40:09.914Z,5.33
2018-06-09T01:42:38.056Z,5.33
2018-06-09T01:45:06.140Z,4.80
2018-06-09T01:47:34.531Z,5.13
2018-06-09T01:50:03.026Z,5.43
2018-06-09T01:52:31.421Z,4.30
2018-06-09T01:54:59.782Z,6.27
2018-06-09T01:57:28.207Z,5.90
2018-06-09T01:59:56.559Z,5.80
2018-06-09T02:02:24.862Z,4.93
2018-06-09T02:04:53.218Z,5.87
2018-06-09T02:07:21.576Z,6.90
2018-06-09T02:09:50.056Z,6.10
2018-06-09T02:12:18.417Z,5.27
2018-06-09T02:14:46.871Z,5.30
2018-06-09T02:17:15.232Z,5.90
2018-06-09T02:19:43.616Z,4.70
2018-06-09T02:22:11.988Z,5.80
2018-06-09T02:24:40.429Z,5.90
2018-06-09T02:27:08.782Z,4.20
2018-06-09T02:29:37.176Z,5.03
2018-06-09T02:32:05.574Z,6.00
2018-06-09T02:34:34.112Z,5.17
2018-06-09T02:37:02.496Z,6.33
2018-06-09T02:39:30.836Z,4.90
2018-06-09T02:41:59.172Z,5.70
2018-06-09T02:44:27.659Z,6.13
2018-06-09T02:46:55.996Z,5.97
2018-06-09T02:49:24.373Z,6.70
2018-06-09T02:51:52.766Z,5.90
2018-06-09T02:54:21.377Z,6.67
2018-06-09T02:56:49.747Z,6.43
2018-06-09T02:59:18.211Z,6.60
2018-06-09T03:01:46.574Z,7.00
2018-06-09T03:04:14.936Z,6.50
2018-06-09T03:06:43.361Z,5.87
2018-06-09T03:09:11.829Z,6.20
2018-06-09T03:11:40.185Z,5.20
2018-06-09T03:14:08.675Z,7.17
2018-06-09T03:16:37.173Z,5.27
2018-06-09T03:19:05.660Z,5.70
2018-06-09T03:21:34.079Z,6.20
2018-06-09T03:24:02.602Z,6.23
2018-06-09T03:26:31.003Z,5.10
2018-06-09T03:28:59.473Z,5.20
2018-06-09T03:31:27.885Z,6.50
2018-06-09T03:33:56.269Z,5.83
2018-06-09T03:36:24.675Z,6.40
2018-06-09T03:38:53.018Z,6.70
2018-06-09T03:41:21.389Z,4.90
2018-06-09T03:43:49.797Z,4.83
2018-06-09T03:46:18.195Z,5.70
2018-06-09T03:48:46.636Z,6.23
2018-06-09T03:51:14.963Z,5.33
2018-06-09T03:53:43.371Z,5.60
2018-06-09T03:56:11.737Z,5.70
2018-06-09T03:58:40.117Z,6.40
2018-06-09T04:01:08.619Z,5.73
2018-06-09T04:03:37.200Z,7.23
2018-06-09T04:06:05.577Z,5.77
2018-06-09T04:08:33.925Z,7.07
2018-06-09T04:11:02.361Z,6.70
2018-06-09T04:13:30.433Z,5.73
2018-06-09T04:15:58.799Z,6.10
2018-06-09T04:18:27.153Z,5.80
2018-06-09T04:20:55.537Z,6.43
2018-06-09T04:23:23.924Z,7.27
2018-06-09T04:25:52.337Z,5.50
2018-06-09T04:28:20.864Z,6.03
2018-06-09T04:30:49.205Z,6.50
2018-06-09T04:33:17.573Z,8.00
2018-06-09T04:35:45.931Z,6.47
2018-06-09T04:38:14.245Z,6.37
2018-06-09T04:40:42.635Z,6.83
2018-06-09T04:43:11.669Z,7.90
2018-06-09T04:45:40.010Z,6.70
2018-06-09T04:48:08.374Z,7.13
2018-06-09T04:50:36.750Z,6.67
2018-06-09T04:53:05.286Z,7.10
2018-06-09T04:55:33.814Z,7.07
2018-06-09T04:58:02.178Z,7.10
2018-06-09T05:00:30.571Z,8.10
2018-06-09T05:02:58.934Z,9.13
2018-06-09T05:05:27.318Z,7.77
2018-06-09T05:07:55.760Z,7.20
2018-06-09T05:10:24.184Z,6.90
2018-06-09T05:12:52.594Z,5.97
2018-06-09T05:15:21.098Z,7.20
2018-06-09T05:17:49.525Z,5.90
2018-06-09T05:20:17.913Z,6.10
2018-06-09T05:22:46.394Z,5.90
2018-06-09T05:25:14.763Z,7.33
2018-06-09T05:27:43.178Z,8.80
2018-06-09T05:30:11.622Z,8.23
2018-06-09T05:32:41.146Z,8.67
2018-06-09T05:35:09.524Z,7.70
2018-06-09T05:37:38.080Z,8.23
2018-06-09T05:40:06.499Z,9.90
2018-06-09T05:42:34.822Z,8.90
2018-06-09T05:45:03.328Z,7.30
2018-06-09T05:47:31.670Z,7.70
2018-06-09T05:50:00.111Z,8.13
2018-06-09T05:52:28.650Z,8.07
2018-06-09T05:54:57.210Z,7.83
2018-06-09T05:57:25.684Z,8.13
2018-06-09T05:59:54.080Z,9.80
2018-06-09T06:02:22.570Z,9.97
2018-06-09T06:04:50.961Z,7.90
2018-06-09T06:07:19.364Z,7.20
2018-06-09T06:09:47.704Z,8.50
2018-06-09T06:12:16.046Z,8.70
2018-06-09T06:14:44.122Z,8.70
2018-06-09T06:17:12.476Z,7.27
2018-06-09T06:19:41.026Z,5.60
2018-06-09T06:22:09.502Z,7.53
2018-06-09T06:24:37.897Z,9.40
2018-06-09T06:27:06.288Z,7.40
2018-06-09T06:29:34.734Z,8.50
2018-06-09T06:32:03.432Z,9.43
2018-06-09T06:34:31.832Z,7.33
2018-06-09T06:37:00.238Z,8.50
2018-06-09T06:39:28.686Z,8.60
2018-06-09T06:41:57.028Z,9.67
2018-06-09T06:44:25.630Z,9.97
2018-06-09T06:46:53.952Z,9.60
2018-06-09T06:49:22.424Z,8.77
2018-06-09T06:51:50.836Z,9.17
2018-06-09T06:54:19.210Z,8.53
2018-06-09T06:56:47.596Z,8.67
2018-06-09T06:59:15.956Z,8.87
2018-06-09T07:01:44.465Z,8.13
2018-06-09T07:04:12.826Z,10.00
2018-06-09T07:06:41.354Z,9.37
2018-06-09T07:09:09.768Z,9.00
2018-06-09T07:11:38.181Z,8.70
2018-06-09T07:14:06.549Z,8.77
2018-06-09T07:16:34.967Z,7.80
2018-06-09T07:19:03.521Z,8.93
2018-06-09T07:21:32.039Z,8.53
2018-06-09T07:24:00.460Z,8.73
2018-06-09T07:26:28.816Z,8.43
2018-06-09T07:28:57.185Z,7.77
2018-06-09T07:31:25.589Z,9.83
2018-06-09T07:33:53.972Z,8.27
2018-06-09T07:36:22.371Z,8.77
2018-06-09T07:38:50.729Z,7.77
2018-06-09T07:41:19.197Z,8.60
2018-06-09T07:43:47.603Z,8.63
2018-06-09T07:46:15.909Z,9.40
2018-06-09T07:48:44.283Z,8.70
2018-06-09T07:51:12.777Z,8.23
2018-06-09T07:53:41.165Z,8.50
2018-06-09T07:56:09.579Z,8.47
2018-06-09T07:58:37.968Z,9.23
2018-06-09T08:01:06.367Z,9.50
2018-06-09T08:03:34.928Z,8.00
2018-06-09T08:06:03.318Z,8.37
2018-06-09T08:08:31.661Z,8.77
2018-06-09T08:11:00.097Z,6.97
2018-06-09T08:13:28.511Z,6.80
2018-06-09T08:15:57.155Z,6.07
2018-06-09T08:18:25.559Z,7.17
2018-06-09T08:20:53.934Z,6.90
2018-06-09T08:23:22.300Z,7.43
2018-06-09T08:25:50.326Z,6.33
2018-06-09T08:28:18.645Z,7.30
2018-06-09T08:30:46.972Z,7.10
2018-06-09T08:33:15.423Z,9.50
2018-06-09T08:35:43.917Z,7.27
2018-06-09T08:38:12.500Z,8.00
2018-06-09T08:40:40.858Z,8.30
2018-06-09T08:43:09.384Z,7.60
2018-06-09T08:45:37.726Z,8.40
2018-06-09T08:48:06.105Z,8.17
2018-06-09T08:50:34.480Z,7.37
2018-06-09T08:53:02.932Z,7.00
2018-06-09T08:55:31.433Z,5.97
2018-06-09T08:57:59.791Z,8.13
2018-06-09T09:00:28.181Z,6.53
2018-06-09T09:02:56.615Z,6.20
2018-06-09T09:05:25.003Z,7.33
2018-06-09T09:07:53.390Z,7.17
2018-06-09T09:10:21.749Z,7.10
2018-06-09T09:12:50.126Z,8.30
2018-06-09T09:15:18.698Z,7.80
2018-06-09T09:17:47.039Z,6.70
2018-06-09T09:20:15.411Z,7.20
2018-06-09T09:22:43.890Z,6.60
2018-06-09T09:25:12.227Z,7.30
2018-06-09T09:27:40.645Z,6.30
2018-06-09T09:30:09.034Z,6.50
2018-06-09T09:32:37.408Z,6.80
2018-06-09T09:35:05.807Z,6.70
2018-06-09T09:37:34.147Z,6.73
2018-06-09T09:40:02.549Z,7.23
2018-06-09T09:42:30.885Z,6.57
2018-06-09T09:44:59.287Z,5.47
2018-06-09T09:47:27.755Z,6.30
2018-06-09T09:49:56.169Z,5.87
2018-06-09T09:52:24.603Z,6.67
2018-06-09T09:54:53.048Z,7.40
2018-06-09T09:57:21.393Z,7.40
2018-06-09T09:59:49.776Z,7.90
2018-06-09T10:02:20.004Z,6.67
2018-06-09T10:04:48.461Z,7.97
2018-06-09T10:07:16.905Z,6.20
2018-06-09T10:09:45.285Z,6.93
2018-06-09T10:12:13.650Z,6.30
2018-06-09T10:14:42.129Z,6.10
2018-06-09T10:17:10.378Z,6.00
2018-06-09T10:19:38.846Z,6.57
2018-06-09T10:22:07.289Z,6.67
2018-06-09T10:24:35.840Z,6.20
2018-06-09T10:27:04.390Z,6.23
2018-06-09T10:29:32.939Z,5.93
2018-06-09T10:32:01.392Z,7.10
2018-06-09T10:34:29.862Z,8.53
2018-06-09T10:36:58.374Z,6.50
2018-06-09T10:39:27.139Z,7.50
2018-06-09T10:41:56.456Z,6.00
2018-06-09T10:44:25.791Z,7.10
2018-06-09T10:46:54.337Z,7.10
2018-06-09T10:49:22.761Z,6.03
2018-06-09T10:51:51.159Z,6.53
2018-06-09T10:54:19.641Z,5.97
2018-06-09T10:56:48.087Z,5.33
2018-06-09T10:59:16.739Z,5.90
2018-06-09T11:01:45.189Z,6.73
2018-06-09T11:04:13.605Z,5.10
2018-06-09T11:06:42.181Z,5.77
2018-06-09T11:09:10.642Z,6.77
2018-06-09T11:11:39.085Z,5.80
2018-06-09T11:14:07.455Z,5.73
2018-06-09T11:16:35.855Z,5.43
2018-06-09T11:19:04.309Z,4.03
2018-06-09T11:21:32.910Z,5.90
2018-06-09T11:24:01.377Z,5.47
2018-06-09T11:26:30.012Z,4.30
2018-06-09T11:28:58.441Z,4.50
2018-06-09T11:31:26.937Z,4.37
2018-06-09T11:33:55.465Z,4.47
2018-06-09T11:36:23.942Z,4.40
2018-06-09T11:38:52.413Z,4.47
2018-06-09T11:41:20.841Z,4.37
2018-06-09T11:43:49.244Z,3.63
2018-06-09T11:46:17.649Z,3.70
2018-06-09T11:48:46.028Z,3.13
2018-06-09T11:51:14.441Z,4.57
2018-06-09T11:53:43.216Z,3.73
2018-06-09T11:56:11.778Z,3.80
2018-06-09T11:58:40.247Z,3.60
2018-06-09T12:01:08.723Z,3.53
2018-06-09T12:03:37.180Z,3.30
2018-06-09T12:06:06.347Z,3.87
2018-06-09T12:08:34.853Z,3.70
2018-06-09T12:11:03.330Z,3.60
2018-06-09T12:13:31.919Z,3.40
2018-06-09T12:16:00.431Z,3.83
2018-06-09T12:18:28.831Z,3.60
2018-06-09T12:20:57.264Z,4.10
2018-06-09T12:23:27.205Z,4.23
2018-06-09T12:25:55.587Z,4.70
2018-06-09T12:28:24.069Z,4.30
2018-06-09T12:30:52.373Z,4.83
2018-06-09T12:33:21.069Z,3.33
2018-06-09T12:35:49.462Z,4.80
2018-06-09T12:38:17.573Z,4.17
2018-06-09T12:40:46.001Z,5.10
2018-06-09T12:43:14.178Z,4.00
2018-06-09T12:45:42.848Z,4.50
2018-06-09T12:48:11.301Z,4.63
2018-06-09T12:50:39.707Z,4.33
2018-06-09T12:53:08.043Z,4.83
2018-06-09T12:55:36.460Z,4.23
2018-06-09T12:58:04.883Z,5.10
2018-06-09T13:00:33.327Z,5.10
2018-06-09T13:03:01.854Z,4.40
2018-06-09T13:05:30.344Z,4.87
2018-06-09T13:07:58.801Z,5.03
2018-06-09T13:10:27.220Z,4.90
2018-06-09T13:12:55.619Z,4.10
2018-06-09T13:15:24.039Z,4.50
2018-06-09T13:17:52.576Z,4.60
2018-06-09T13:20:21.065Z,5.00
2018-06-09T13:22:49.165Z,3.90
2018-06-09T13:25:17.689Z,4.90
2018-06-09T13:27:46.169Z,4.87
2018-06-09T13:30:14.672Z,3.90
2018-06-09T13:32:43.089Z,4.80
2018-06-09T13:35:11.634Z,4.73
2018-06-09T13:37:40.017Z,3.97
2018-06-09T13:40:08.425Z,4.87
2018-06-09T13:42:36.807Z,4.33
2018-06-09T13:45:05.229Z,4.00
2018-06-09T13:47:33.551Z,3.43
2018-06-09T13:50:01.971Z,2.83
2018-06-09T13:52:30.311Z,2.77
2018-06-09T13:54:58.838Z,2.70
2018-06-09T13:57:27.586Z,3.23
2018-06-09T13:59:56.011Z,3.43
2018-06-09T14:02:24.357Z,3.83
2018-06-09T14:04:52.751Z,3.70
2018-06-09T14:07:21.271Z,2.60
2018-06-09T14:09:49.717Z,3.67
2018-06-09T14:12:18.103Z,4.17
2018-06-09T14:14:46.472Z,3.07
2018-06-09T14:17:14.943Z,3.00
2018-06-09T14:19:43.317Z,2.60
2018-06-09T14:22:11.729Z,3.73
2018-06-09T14:24:40.089Z,3.60
2018-06-09T14:27:08.570Z,3.77
2018-06-09T14:29:36.983Z,3.53
2018-06-09T14:32:05.527Z,3.20
2018-06-09T14:34:34.060Z,2.40
2018-06-09T14:37:02.570Z,3.27
2018-06-09T14:39:30.967Z,3.90
2018-06-09T14:41:59.345Z,2.40
2018-06-09T14:44:27.725Z,3.20
2018-06-09T14:46:56.250Z,3.03
2018-06-09T14:49:24.703Z,3.17
2018-06-09T14:51:53.173Z,2.60
2018-06-09T14:54:21.569Z,3.10
2018-06-09T14:56:50.030Z,3.13
2018-06-09T14:59:18.437Z,3.03
2018-06-09T15:01:46.805Z,2.47
2018-06-09T15:04:15.315Z,2.60
2018-06-09T15:06:43.755Z,2.77
2018-06-09T15:09:12.174Z,3.00
2018-06-09T15:11:40.640Z,5.10
2018-06-09T15:14:09.079Z,8.73
2018-06-09T15:16:37.694Z,8.97
2018-06-09T15:19:06.069Z,57.53
2018-06-09T15:21:34.444Z,33.90
2018-06-09T15:24:02.867Z,49.70
2018-06-09T15:26:31.407Z,26.33
2018-06-09T15:28:59.797Z,85.70
2018-06-09T15:31:28.198Z,151.60
2018-06-09T15:33:56.657Z,206.73
2018-06-09T15:36:25.077Z,108.17
2018-06-09T15:38:53.438Z,43.80
2018-06-09T15:41:21.953Z,28.97
2018-06-09T15:43:50.345Z,47.73
2018-06-09T15:46:18.477Z,22.30
2018-06-09T15:48:46.969Z,15.70
2018-06-09T15:51:15.456Z,14.47
2018-06-09T15:53:43.999Z,8.33
2018-06-09T15:56:12.344Z,5.07
2018-06-09T15:58:40.708Z,4.53
2018-06-09T16:01:09.100Z,3.67
2018-06-09T16:03:37.486Z,3.33
2018-06-09T16:06:05.884Z,3.67
2018-06-09T16:08:34.393Z,5.00
2018-06-09T16:11:02.831Z,4.03
2018-06-09T16:13:31.224Z,4.23
2018-06-09T16:15:59.602Z,3.00
2018-06-09T16:18:28.025Z,3.00
2018-06-09T16:20:56.521Z,3.30
2018-06-09T16:23:24.954Z,3.40
2018-06-09T16:25:53.336Z,3.20
2018-06-09T16:28:21.714Z,3.93
2018-06-09T16:30:50.121Z,2.73
2018-06-09T16:33:18.674Z,3.00
2018-06-09T16:35:47.084Z,2.13
2018-06-09T16:38:15.438Z,3.47
2018-06-09T16:40:43.951Z,3.30
2018-06-09T16:43:12.335Z,4.10
2018-06-09T16:45:40.940Z,4.80
2018-06-09T16:48:09.358Z,5.63
2018-06-09T16:50:37.748Z,5.83
2018-06-09T16:53:06.199Z,5.00
2018-06-09T16:55:34.710Z,5.17
2018-06-09T16:58:03.167Z,5.70
2018-06-09T17:00:31.585Z,6.17
2018-06-09T17:03:00.030Z,6.67
2018-06-09T17:05:28.588Z,7.23
2018-06-09T17:07:57.148Z,6.20
2018-06-09T17:10:25.600Z,5.07
2018-06-09T17:12:54.006Z,5.93
2018-06-09T17:15:22.364Z,4.30
2018-06-09T17:17:50.770Z,4.50
2018-06-09T17:20:20.124Z,4.67
2018-06-09T17:22:48.567Z,3.20
2018-06-09T17:25:17.162Z,5.50
2018-06-09T17:27:45.589Z,4.33
2018-06-09T17:30:13.942Z,5.17
2018-06-09T17:32:42.332Z,3.97
2018-06-09T17:35:10.732Z,4.53
2018-06-09T17:37:39.322Z,4.50
2018-06-09T17:40:07.709Z,5.10
2018-06-09T17:42:36.123Z,5.80
2018-06-09T17:45:04.552Z,5.43
2018-06-09T17:47:32.972Z,5.20
2018-06-09T17:50:01.549Z,6.80
2018-06-09T17:52:29.994Z,4.40
2018-06-09T17:54:58.357Z,4.90
2018-06-09T17:57:26.837Z,4.23
2018-06-09T17:59:55.287Z,5.40
2018-06-09T18:02:23.964Z,5.73
2018-06-09T18:04:52.391Z,8.77
2018-06-09T18:07:20.799Z,6.53
2018-06-09T18:09:49.220Z,4.77
2018-06-09T18:12:17.784Z,3.03
2018-06-09T18:14:46.148Z,4.30
2018-06-09T18:17:14.683Z,3.80
2018-06-09T18:19:43.123Z,3.37
2018-06-09T18:22:11.515Z,4.40
2018-06-09T18:24:39.996Z,3.80
2018-06-09T18:27:08.466Z,3.70
2018-06-09T18:29:36.850Z,3.23
2018-06-09T18:32:05.425Z,3.73
2018-06-09T18:34:33.765Z,3.60
2018-06-09T18:37:02.209Z,4.17
2018-06-09T18:39:30.594Z,3.40
2018-06-09T18:41:58.988Z,4.10
2018-06-09T18:44:27.402Z,3.77
2018-06-09T18:46:55.829Z,4.60
2018-06-09T18:49:24.356Z,3.87
2018-06-09T18:51:52.737Z,3.93
2018-06-09T18:54:21.180Z,4.40
2018-06-09T18:56:50.709Z,3.87
2018-06-09T18:59:19.148Z,4.67
2018-06-09T19:01:47.519Z,3.97
2018-06-09T19:04:15.963Z,4.30
2018-06-09T19:06:44.355Z,4.30
2018-06-09T19:09:12.758Z,3.73
2018-06-09T19:11:41.155Z,4.30
2018-06-09T19:14:09.585Z,4.47
2018-06-09T19:16:38.047Z,4.43
2018-06-09T19:19:06.484Z,4.37
2018-06-09T19:21:34.924Z,4.43
2018-06-09T19:24:03.400Z,3.73
2018-06-09T19:26:31.864Z,4.53
2018-06-09T19:29:00.341Z,4.27
2018-06-09T19:31:28.943Z,4.40
2018-06-09T19:33:57.342Z,4.10
2018-06-09T19:36:25.735Z,3.67
2018-06-09T19:38:54.090Z,4.03
2018-06-09T19:41:22.589Z,3.87
2018-06-09T19:43:50.953Z,4.40
2018-06-09T19:46:19.423Z,4.10
2018-06-09T19:48:47.922Z,3.93
2018-06-09T19:51:16.383Z,4.93
2018-06-09T19:53:44.905Z,3.40
2018-06-09T19:56:13.284Z,4.90
2018-06-09T19:58:41.639Z,4.87
2018-06-09T20:01:10.180Z,3.33
2018-06-09T20:03:39.562Z,4.53
2018-06-09T20:06:07.947Z,4.77
2018-06-09T20:08:36.507Z,4.30
2018-06-09T20:11:04.892Z,4.77
2018-06-09T20:13:33.424Z,4.90
2018-06-09T20:16:01.876Z,3.97
2018-06-09T20:18:30.534Z,4.40
2018-06-09T20:21:00.207Z,4.50
2018-06-09T20:23:28.641Z,4.20
2018-06-09T20:25:57.230Z,4.97
2018-06-09T20:28:25.686Z,4.00
2018-06-09T20:30:54.068Z,4.37
2018-06-09T20:33:22.623Z,4.57
2018-06-09T20:35:51.028Z,3.60
2018-06-09T20:38:19.450Z,4.30
2018-06-09T20:40:47.922Z,4.07
2018-06-09T20:43:16.304Z,3.27
2018-06-09T20:45:44.802Z,4.13
2018-06-09T20:48:13.212Z,3.83
2018-06-09T20:50:48.324Z,4.13
2018-06-09T20:53:16.988Z,4.20
2018-06-09T20:55:45.408Z,4.53
2018-06-09T20:58:14.148Z,3.90
2018-06-09T21:00:42.654Z,4.00
2018-06-09T21:03:11.054Z,3.60
2018-06-09T21:05:39.603Z,4.87
2018-06-09T21:08:08.300Z,4.13
2018-06-09T21:10:36.686Z,4.00
2018-06-09T21:13:05.166Z,4.17
2018-06-09T21:15:33.643Z,5.50
2018-06-09T21:18:02.077Z,4.83
2018-06-09T21:20:30.440Z,4.40
2018-06-09T21:23:05.695Z,4.03
2018-06-09T21:25:34.139Z,4.60
2018-06-09T21:28:08.738Z,5.07
2018-06-09T21:30:42.752Z,5.30
2018-06-09T21:33:26.791Z,3.90
2018-06-09T21:36:02.201Z,5.53
2018-06-09T21:38:38.764Z,4.53
2018-06-09T21:41:12.414Z,4.03
2018-06-09T21:43:46.147Z,3.90
2018-06-09T21:46:20.119Z,4.57
2018-06-09T21:48:48.531Z,4.77
2018-06-09T21:51:16.908Z,4.43
2018-06-09T21:53:45.436Z,4.40
2018-06-09T21:56:13.861Z,5.50
2018-06-09T21:58:42.290Z,5.27
2018-06-09T22:01:10.763Z,4.37
2018-06-09T22:03:39.261Z,4.30
2018-06-09T22:06:07.399Z,5.30
2018-06-09T22:08:35.829Z,4.03
2018-06-09T22:11:04.271Z,3.80
2018-06-09T22:13:32.852Z,3.60
2018-06-09T22:16:01.232Z,5.60
2018-06-09T22:18:29.642Z,4.33
2018-06-09T22:20:58.013Z,4.53
2018-06-09T22:23:26.308Z,4.80
2018-06-09T22:25:59.007Z,3.70
2018-06-09T22:28:27.935Z,3.93
2018-06-09T22:30:56.343Z,3.83
2018-06-09T22:33:24.824Z,4.93
2018-06-09T22:35:53.278Z,4.90
2018-06-09T22:38:21.669Z,3.63
2018-06-09T22:40:50.059Z,4.03
2018-06-09T22:43:18.121Z,3.90
2018-06-09T22:45:46.537Z,4.30
2018-06-09T22:48:14.971Z,4.07
2018-06-09T22:50:43.399Z,5.60
2018-06-09T22:53:11.781Z,5.47
2018-06-09T22:55:40.320Z,5.40
2018-06-09T22:58:08.720Z,4.70
2018-06-09T23:00:53.230Z,4.40
2018-06-09T23:03:21.647Z,4.60
2018-06-09T23:05:49.999Z,4.50
2018-06-09T23:08:18.338Z,4.37
2018-06-09T23:10:46.867Z,5.67
2018-06-09T23:13:15.985Z,4.63
2018-06-09T23:15:44.463Z,4.27
2018-06-09T23:18:12.895Z,4.20
2018-06-09T23:20:41.336Z,4.63
2018-06-09T23:23:09.777Z,4.90
2018-06-09T23:25:38.355Z,4.87
2018-06-09T23:28:06.770Z,4.83
2018-06-09T23:30:35.302Z,5.07
2018-06-09T23:33:03.711Z,4.97
2018-06-09T23:35:32.139Z,5.37
2018-06-09T23:38:00.645Z,5.43
2018-06-09T23:40:29.291Z,4.50
2018-06-09T23:42:57.743Z,4.00
2018-06-09T23:45:26.049Z,4.10
2018-06-09T23:47:54.465Z,3.60
2018-06-09T23:50:22.993Z,5.37
2018-06-09T23:52:51.477Z,4.20
2018-06-09T23:55:20.157Z,4.60
2018-06-09T23:57:49.166Z,2.93
